Time;durP1;ratioP1;P1;durP2;ratioP2;P2;SDS_P1;SDS_P2;PMS_P1;PMS_P2;Temp;Humidity;BMP_temperature;BMP_pressure;BME280_temperature;BME280_humidity;BME280_pressure;Samples;Min_cycle;Max_cycle;Signal;HPM_P1;HPM_P2
2022/11/03 00:00:34;;;;;;;;;;;;;;;;;;5092304;28;2071;-43
2022/11/03 00:03:01;;;;;;;;;;;;;;;;;;5092537;28;1784;-47
2022/11/03 00:08:28;;;;;;;;;;;;;;;;;;5058562;28;1928;-47
2022/11/03 00:11:02;;;;;;;;;;;;;;;;;;5092252;28;1943;-47
2022/11/03 00:13:30;;;;;;;;;;;;;;;;;;5092495;28;2203;-48
2022/11/03 00:15:58;;;;;;;;;;;;;;;;;;5092359;28;1875;-51
2022/11/03 00:18:26;;;;;;;;;;;;;;;;;;5092110;28;2156;-45
2022/11/03 00:21:12;;;;;;;;;;;;;;;;;;5090967;28;2094;-46
2022/11/03 00:23:41;;;;;;;;;;;;;;;;;;5091976;28;1955;-45
2022/11/03 00:26:10;;;;;;;;;;;;;;;;;;5091992;28;2130;-49
2022/11/03 00:28:39;;;;;;;;;;;;;;;;;;5091737;28;1973;-46
2022/11/03 00:31:08;;;;;;;;;;;;;;;;;;5091766;28;1947;-41
2022/11/03 00:33:35;;;;;;;;;;;;;;;;;;5091160;28;2225;-44
2022/11/03 00:36:03;;;;;;;;;;;;;;;;;;5092026;28;1404;-44
2022/11/03 00:38:31;;;;;;;;;;;;;;;;;;5091783;28;2085;-45
2022/11/03 00:41:00;;;;;;;;;;;;;;;;;;5091638;28;1804;-48
2022/11/03 00:43:29;;;;;;;;;;;;;;;;;;5091640;28;1653;-43
2022/11/03 00:45:56;;;;;;;;;;;;;;;;;;5091376;28;1580;-49
2022/11/03 00:48:29;;;;;;;;;;;;;;;;;;5091334;28;1977;-45
2022/11/03 00:51:01;;;;;;;;;;;;;;;;;;5098472;28;2434;-47
2022/11/03 00:53:29;;;;;;;;;;;;;;;;;;5111948;28;1976;-44
2022/11/03 00:55:56;;;;;;;;;;;;;;;;;;5111755;28;1995;-48
2022/11/03 00:58:24;;;;;;;;;;;;;;;;;;5111916;28;1749;-46
2022/11/03 01:01:09;;;;;;;;;;;;;;;;;;5111733;28;1927;-47
2022/11/03 01:03:38;;;;;;;;;;;;;;;;;;5111946;28;1805;-46
2022/11/03 01:08:54;;;;;;;;;;;;;;;;;;5091297;28;1891;-50
2022/11/03 01:14:46;;;;;;;;;;;;;;;;;;5068634;28;1964;-47
2022/11/03 01:17:24;;;;;;;;;;;;;;;;;;5089495;28;2045;-48
2022/11/03 01:19:51;;;;;;;;;;;;;;;;;;5089861;28;1931;-50
2022/11/03 01:22:20;;;;;;;;;;;;;;;;;;5091321;28;2138;-46
2022/11/03 01:24:47;;;;;;;;;;;;;;;;;;5089833;28;1749;-44
2022/11/03 01:27:16;;;;;;;;;;;;;;;;;;5091048;28;2074;-47
2022/11/03 01:29:43;;;;;;;;;;;;;;;;;;5089816;28;1628;-46
2022/11/03 01:32:11;;;;;;;;;;;;;;;;;;5091230;28;1940;-47
2022/11/03 01:34:38;;;;;;;;;;;;;;;;;;5091423;28;1760;-48
2022/11/03 01:37:06;;;;;;;;;;;;;;;;;;5091267;28;1555;-48
2022/11/03 01:39:33;;;;;;;;;;;;;;;;;;5090989;28;1951;-44
2022/11/03 01:42:00;;;;;;;;;;;;;;;;;;5090951;28;1614;-48
2022/11/03 01:44:35;;;;;;;;;;;;;;;;;;5091256;28;1969;-46
2022/11/03 01:47:14;;;;;;;;;;;;;;;;;;5095001;28;2004;-44
2022/11/03 01:49:52;;;;;;;;;;;;;;;;;;5093926;28;2067;-45
2022/11/03 01:52:32;;;;;;;;;;;;;;;;;;5094706;28;2196;-43
2022/11/03 01:55:03;;;;;;;;;;;;;;;;;;5094686;28;1742;-46
2022/11/03 01:57:34;;;;;;;;;;;;;;;;;;5094714;28;2013;-44
2022/11/03 02:00:02;;;;;;;;;;;;;;;;;;5094811;28;2120;-47
2022/11/03 02:02:38;;;;;;;;;;;;;;;;;;5094967;28;1690;-46
2022/11/03 02:05:07;;;;;;;;;;;;;;;;;;5094479;28;1944;-44
2022/11/03 02:07:39;;;;;;;;;;;;;;;;;;5094477;28;1957;-42
2022/11/03 02:10:08;;;;;;;;;;;;;;;;;;5094773;28;1762;-45
2022/11/03 02:12:36;;;;;;;;;;;;;;;;;;5094672;28;1403;-49
2022/11/03 02:15:10;;;;;;;;;;;;;;;;;;5094474;28;1783;-49
2022/11/03 02:17:40;;;;;;;;;;;;;;;;;;5094727;28;1968;-49
2022/11/03 02:20:13;;;;;;;;;;;;;;;;;;5094321;28;1794;-46
2022/11/03 02:22:44;;;;;;;;;;;;;;;;;;5094622;28;1684;-44
2022/11/03 02:25:14;;;;;;;;;;;;;;;;;;5094466;28;1789;-46
2022/11/03 02:27:42;;;;;;;;;;;;;;;;;;5094436;28;2022;-50
2022/11/03 02:30:10;;;;;;;;;;;;;;;;;;5094304;28;1482;-48
2022/11/03 02:32:47;;;;;;;;;;;;;;;;;;5094155;28;1834;-46
2022/11/03 02:35:19;;;;;;;;;;;;;;;;;;5094127;28;2158;-47
2022/11/03 02:37:48;;;;;;;;;;;;;;;;;;5094029;28;2183;-46
2022/11/03 02:40:19;;;;;;;;;;;;;;;;;;5094035;28;2114;-45
2022/11/03 02:42:47;;;;;;;;;;;;;;;;;;5093750;28;2115;-44
2022/11/03 02:45:17;;;;;;;;;;;;;;;;;;5093455;28;2057;-43
2022/11/03 02:47:47;;;;;;;;;;;;;;;;;;5075906;28;2316;-46
2022/11/03 02:50:14;;;;;;;;;;;;;;;;;;5093776;28;1819;-44
2022/11/03 02:52:43;;;;;;;;;;;;;;;;;;5093891;28;1645;-41
2022/11/03 02:55:11;;;;;;;;;;;;;;;;;;5093708;28;2056;-48
2022/11/03 02:58:01;;;;;;;;;;;;;;;;;;5095960;28;1463;-46
2022/11/03 03:00:31;;;;;;;;;;;;;;;;;;5103663;28;2253;-45
2022/11/03 03:03:02;;;;;;;;;;;;;;;;;;5114000;28;1625;-45
2022/11/03 03:05:32;;;;;;;;;;;;;;;;;;5113772;28;1871;-48
2022/11/03 03:08:01;;;;;;;;;;;;;;;;;;5113801;28;1911;-45
2022/11/03 03:10:30;;;;;;;;;;;;;;;;;;5104129;28;1777;-51
2022/11/03 03:12:58;;;;;;;;;;;;;;;;;;5093488;28;2038;-47
2022/11/03 03:15:49;;;;;;;;;;;;;;;;;;5093315;28;1698;-47
2022/11/03 03:18:34;;;;;;;;;;;;;;;;;;5092689;28;1719;-46
2022/11/03 03:21:03;;;;;;;;;;;;;;;;;;5091912;28;1717;-48
2022/11/03 03:23:34;;;;;;;;;;;;;;;;;;5093152;28;1994;-48
2022/11/03 03:26:04;;;;;;;;;;;;;;;;;;5092888;28;2018;-47
2022/11/03 03:28:35;;;;;;;;;;;;;;;;;;5092924;28;1975;-48
2022/11/03 03:31:05;;;;;;;;;;;;;;;;;;5093010;28;2029;-46
2022/11/03 03:33:33;;;;;;;;;;;;;;;;;;5093146;28;1702;-47
2022/11/03 03:36:02;;;;;;;;;;;;;;;;;;5092856;28;1838;-46
2022/11/03 03:38:32;;;;;;;;;;;;;;;;;;5092974;28;1665;-47
2022/11/03 03:41:02;;;;;;;;;;;;;;;;;;5092744;28;1914;-45
2022/11/03 03:43:35;;;;;;;;;;;;;;;;;;5092728;28;1847;-45
2022/11/03 03:46:10;;;;;;;;;;;;;;;;;;5092863;28;1861;-45
2022/11/03 03:48:38;;;;;;;;;;;;;;;;;;5092735;28;1917;-46
2022/11/03 03:51:06;;;;;;;;;;;;;;;;;;5092694;28;2015;-45
2022/11/03 03:53:33;;;;;;;;;;;;;;;;;;5092272;28;2031;-49
2022/11/03 03:56:00;;;;;;;;;;;;;;;;;;5092626;28;1896;-43
2022/11/03 03:58:28;;;;;;;;;;;;;;;;;;5092498;28;2042;-49
2022/11/03 04:00:55;;;;;;;;;;;;;;;;;;5092649;28;1868;-49
2022/11/03 04:03:24;;;;;;;;;;;;;;;;;;5091323;28;1633;-44
2022/11/03 04:05:52;;;;;;;;;;;;;;;;;;5092219;28;1707;-41
2022/11/03 04:08:20;;;;;;;;;;;;;;;;;;5090997;28;1978;-43
2022/11/03 04:24:39;;;;;;;;;;;;;;;;;;5092229;28;1944;-49
2022/11/03 04:27:15;;;;;;;;;;;;;;;;;;5091700;28;1970;-40
2022/11/03 04:29:43;;;;;;;;;;;;;;;;;;5100087;28;1973;-41
2022/11/03 04:32:15;;;;;;;;;;;;;;;;;;5111350;28;1500;-42
2022/11/03 04:34:44;;;;;;;;;;;;;;;;;;5102579;28;1987;-41
2022/11/03 04:37:11;;;;;;;;;;;;;;;;;;5092092;28;2093;-48
2022/11/03 04:39:39;;;;;;;;;;;;;;;;;;5091936;28;1888;-43
2022/11/03 04:42:19;;;;;;;;;;;;;;;;;;5091681;28;1884;-46
2022/11/03 04:44:48;;;;;;;;;;;;;;;;;;5091838;28;2063;-42
2022/11/03 04:47:16;;;;;;;;;;;;;;;;;;5091754;28;2057;-47
2022/11/03 04:49:45;;;;;;;;;;;;;;;;;;5091670;28;2220;-45
2022/11/03 04:52:18;;;;;;;;;;;;;;;;;;5109167;28;1946;-48
2022/11/03 04:54:47;;;;;;;;;;;;;;;;;;5111822;28;2155;-44
2022/11/03 04:57:15;;;;;;;;;;;;;;;;;;5110331;28;1988;-42
2022/11/03 04:59:43;;;;;;;;;;;;;;;;;;5111947;28;1639;-48
2022/11/03 05:02:12;;;;;;;;;;;;;;;;;;5111948;28;1632;-45
2022/11/03 05:04:40;;;;;;;;;;;;;;;;;;5111827;28;2028;-49
2022/11/03 05:07:29;;;;;;;;;;;;;;;;;;5111424;28;1445;-45
2022/11/03 05:09:57;;;;;;;;;;;;;;;;;;5111595;28;1917;-43
2022/11/03 05:12:24;;;;;;;;;;;;;;;;;;5111998;28;1644;-46
2022/11/03 05:14:51;;;;;;;;;;;;;;;;;;5111656;28;2010;-47
2022/11/03 05:17:27;;;;;;;;;;;;;;;;;;5111879;28;1552;-49
2022/11/03 05:19:56;;;;;;;;;;;;;;;;;;5112691;28;1959;-43
2022/11/03 05:22:26;;;;;;;;;;;;;;;;;;5116213;28;2088;-51
2022/11/03 05:24:55;;;;;;;;;;;;;;;;;;5116183;28;1716;-42
2022/11/03 05:27:22;;;;;;;;;;;;;;;;;;5116031;28;2068;-46
2022/11/03 05:29:50;;;;;;;;;;;;;;;;;;5115955;28;2317;-43
2022/11/03 05:32:30;;;;;;;;;;;;;;;;;;5116030;28;2140;-53
2022/11/03 05:34:57;;;;;;;;;;;;;;;;;;5115681;28;1979;-41
2022/11/03 05:37:28;;;;;;;;;;;;;;;;;;5115669;28;2021;-52
2022/11/03 05:39:59;;;;;;;;;;;;;;;;;;5115522;28;1931;-50
2022/11/03 05:42:38;;;;;;;;;;;;;;;;;;5115566;28;1607;-43
2022/11/03 05:45:17;;;;;;;;;;;;;;;;;;5115829;27;1803;-43
2022/11/03 05:47:45;;;;;;;;;;;;;;;;;;5115574;28;1853;-47
2022/11/03 05:50:17;;;;;;;;;;;;;;;;;;5114427;28;1906;-47
2022/11/03 05:52:45;;;;;;;;;;;;;;;;;;5094873;28;1514;-45
2022/11/03 05:55:24;;;;;;;;;;;;;;;;;;5094828;28;2194;-41
2022/11/03 05:57:56;;;;;;;;;;;;;;;;;;5095126;28;1933;-45
2022/11/03 06:00:26;;;;;;;;;;;;;;;;;;5093739;28;2079;-45
2022/11/03 06:02:54;;;;;;;;;;;;;;;;;;5094814;28;1483;-42
2022/11/03 06:05:22;;;;;;;;;;;;;;;;;;5094490;28;1850;-49
2022/11/03 06:07:50;;;;;;;;;;;;;;;;;;5094743;28;2113;-45
2022/11/03 06:10:22;;;;;;;;;;;;;;;;;;5094392;28;1963;-42
2022/11/03 06:12:50;;;;;;;;;;;;;;;;;;5094522;28;1564;-49
2022/11/03 06:15:27;;;;;;;;;;;;;;;;;;5094335;28;2256;-42
2022/11/03 06:17:55;;;;;;;;;;;;;;;;;;5094890;28;2190;-50
2022/11/03 06:20:22;;;;;;;;;;;;;;;;;;5094316;28;2457;-42
2022/11/03 06:22:51;;;;;;;;;;;;;;;;;;5094379;28;2293;-47
2022/11/03 06:25:31;;;;;;;;;;;;;;;;;;5094262;28;1389;-46
2022/11/03 06:28:01;;;;;;;;;;;;;;;;;;5094180;28;2057;-46
2022/11/03 06:30:30;;;;;;;;;;;;;;;;;;5094464;28;1960;-45
2022/11/03 06:32:59;;;;;;;;;;;;;;;;;;5093300;28;1848;-46
2022/11/03 06:35:26;;;;;;;;;;;;;;;;;;5094285;28;1996;-47
2022/11/03 06:37:55;;;;;;;;;;;;;;;;;;5094216;28;1877;-46
2022/11/03 06:40:25;;;;;;;;;;;;;;;;;;5094076;28;1812;-46
2022/11/03 06:42:53;;;;;;;;;;;;;;;;;;5094353;28;1555;-45
2022/11/03 06:45:22;;;;;;;;;;;;;;;;;;5094022;28;2255;-47
2022/11/03 06:47:51;;;;;;;;;;;;;;;;;;5094006;28;1802;-46
2022/11/03 06:50:21;;;;;;;;;;;;;;;;;;5095192;28;2312;-45
2022/11/03 06:52:49;;;;;;;;;;;;;;;;;;5114027;28;1922;-45
2022/11/03 06:55:19;;;;;;;;;;;;;;;;;;5114260;28;2117;-45
2022/11/03 06:57:47;;;;;;;;;;;;;;;;;;5113325;28;2182;-44
2022/11/03 07:00:17;;;;;;;;;;;;;;;;;;5114027;28;1848;-45
2022/11/03 07:03:10;;;;;;;;;;;;;;;;;;5114048;28;1711;-45
2022/11/03 07:05:37;;;;;;;;;;;;;;;;;;5113670;28;1682;-42
2022/11/03 07:08:20;;;;;;;;;;;;;;;;;;5113736;28;2229;-42
2022/11/03 07:10:49;;;;;;;;;;;;;;;;;;5113620;28;1970;-48
2022/11/03 07:13:18;;;;;;;;;;;;;;;;;;5114069;28;2064;-46
2022/11/03 07:15:45;;;;;;;;;;;;;;;;;;5099574;28;1658;-44
2022/11/03 07:18:21;;;;;;;;;;;;;;;;;;5092995;28;1784;-44
2022/11/03 07:20:49;;;;;;;;;;;;;;;;;;5091796;28;1533;-45
2022/11/03 07:23:18;;;;;;;;;;;;;;;;;;5093150;28;2147;-42
2022/11/03 07:25:48;;;;;;;;;;;;;;;;;;5092947;28;1924;-48
2022/11/03 07:28:15;;;;;;;;;;;;;;;;;;5092789;28;1464;-45
2022/11/03 07:30:43;;;;;;;;;;;;;;;;;;5092951;28;1967;-44
2022/11/03 07:33:19;;;;;;;;;;;;;;;;;;5093059;28;2191;-44
2022/11/03 07:35:46;;;;;;;;;;;;;;;;;;5092941;28;1795;-45
2022/11/03 07:38:34;;;;;;;;;;;;;;;;;;5092664;28;2188;-45
2022/11/03 07:41:01;;;;;;;;;;;;;;;;;;5093054;28;2007;-47
2022/11/03 07:43:32;;;;;;;;;;;;;;;;;;5092663;28;1726;-47
2022/11/03 07:46:00;;;;;;;;;;;;;;;;;;5092915;28;1812;-46
2022/11/03 07:48:32;;;;;;;;;;;;;;;;;;5092873;28;1720;-46
2022/11/03 07:51:03;;;;;;;;;;;;;;;;;;5092511;28;1914;-46
2022/11/03 07:53:30;;;;;;;;;;;;;;;;;;5092588;28;1905;-47
2022/11/03 07:55:57;;;;;;;;;;;;;;;;;;5091211;28;1717;-43
2022/11/03 07:58:33;;;;;;;;;;;;;;;;;;5092320;28;1814;-43
2022/11/03 08:01:00;;;;;;;;;;;;;;;;;;5092565;28;2009;-46
2022/11/03 08:03:35;;;;;;;;;;;;;;;;;;5092342;28;1523;-46
2022/11/03 08:06:02;;;;;;;;;;;;;;;;;;5092328;28;2148;-46
2022/11/03 08:08:31;;;;;;;;;;;;;;;;;;5092565;28;1714;-48
2022/11/03 08:10:58;;;;;;;;;;;;;;;;;;5092087;28;1963;-47
2022/11/03 08:13:25;;;;;;;;;;;;;;;;;;5092301;28;2006;-43
2022/11/03 08:15:52;;;;;;;;;;;;;;;;;;5092306;28;1813;-45
2022/11/03 08:18:19;;;;;;;;;;;;;;;;;;5091895;28;1894;-44
2022/11/03 08:20:46;;;;;;;;;;;;;;;;;;5092030;28;2309;-44
2022/11/03 08:23:14;;;;;;;;;;;;;;;;;;5092082;28;1975;-47
2022/11/03 08:25:56;;;;;;;;;;;;;;;;;;5092037;28;1923;-47
2022/11/03 08:28:25;;;;;;;;;;;;;;;;;;5091982;28;1769;-46
2022/11/03 08:30:52;;;;;;;;;;;;;;;;;;5091862;28;1981;-46
2022/11/03 08:33:19;;;;;;;;;;;;;;;;;;5091596;28;1814;-45
2022/11/03 08:35:46;;;;;;;;;;;;;;;;;;5091960;28;1725;-46
2022/11/03 08:38:13;;;;;;;;;;;;;;;;;;5092048;28;1902;-46
2022/11/03 08:40:40;;;;;;;;;;;;;;;;;;5091841;28;1815;-44
2022/11/03 08:43:07;;;;;;;;;;;;;;;;;;5091626;28;1994;-43
2022/11/03 08:45:34;;;;;;;;;;;;;;;;;;5091843;28;1761;-44
2022/11/03 08:48:02;;;;;;;;;;;;;;;;;;5091479;28;1987;-46
2022/11/03 08:50:30;;;;;;;;;;;;;;;;;;5094640;28;1914;-46
2022/11/03 08:52:57;;;;;;;;;;;;;;;;;;5111783;28;2128;-46
2022/11/03 08:55:24;;;;;;;;;;;;;;;;;;5111304;28;1830;-46
2022/11/03 08:57:51;;;;;;;;;;;;;;;;;;5111762;28;2067;-49
2022/11/03 09:00:18;;;;;;;;;;;;;;;;;;5111881;28;2049;-41
2022/11/03 09:02:45;;;;;;;;;;;;;;;;;;5111723;28;2050;-48
2022/11/03 09:05:12;;;;;;;;;;;;;;;;;;5111432;28;1556;-46
2022/11/03 09:07:39;;;;;;;;;;;;;;;;;;5111755;28;1921;-44
2022/11/03 09:10:26;;;;;;;;;;;;;;;;;;5111304;28;1981;-45
2022/11/03 09:13:00;;;;;;;;;;;;;;;;;;5111693;28;2049;-48
2022/11/03 09:15:28;;;;;;;;;;;;;;;;;;5111549;28;1873;-47
2022/11/03 09:17:55;;;;;;;;;;;;;;;;;;5111655;28;1951;-47
2022/11/03 09:20:22;;;;;;;;;;;;;;;;;;5111460;28;1842;-45
2022/11/03 09:22:50;;;;;;;;;;;;;;;;;;5111383;28;1994;-46
2022/11/03 09:25:17;;;;;;;;;;;;;;;;;;5111374;28;2075;-45
2022/11/03 09:27:45;;;;;;;;;;;;;;;;;;5111394;28;2155;-48
2022/11/03 09:30:12;;;;;;;;;;;;;;;;;;5111367;28;1983;-47
2022/11/03 09:32:45;;;;;;;;;;;;;;;;;;5111293;28;1447;-47
2022/11/03 09:35:13;;;;;;;;;;;;;;;;;;5110109;28;1984;-48
2022/11/03 09:37:40;;;;;;;;;;;;;;;;;;5111354;28;1470;-44
2022/11/03 09:40:08;;;;;;;;;;;;;;;;;;5111197;28;1694;-44
2022/11/03 09:42:36;;;;;;;;;;;;;;;;;;5111865;28;1943;-44
2022/11/03 09:45:04;;;;;;;;;;;;;;;;;;5111460;28;1752;-47
2022/11/03 09:47:33;;;;;;;;;;;;;;;;;;5111301;28;2311;-46
2022/11/03 09:50:00;;;;;;;;;;;;;;;;;;5111135;28;1910;-47
2022/11/03 09:52:27;;;;;;;;;;;;;;;;;;5091423;28;2096;-46
2022/11/03 09:54:54;;;;;;;;;;;;;;;;;;5090997;28;2312;-50
2022/11/03 09:57:22;;;;;;;;;;;;;;;;;;5106488;28;1616;-46
2022/11/03 09:59:50;;;;;;;;;;;;;;;;;;5090713;28;1661;-44
2022/11/03 10:02:21;;;;;;;;;;;;;;;;;;5089565;28;1575;-46
2022/11/03 10:04:48;;;;;;;;;;;;;;;;;;5090441;28;2305;-47
2022/11/03 10:07:15;;;;;;;;;;;;;;;;;;5093729;28;1789;-47
2022/11/03 10:09:47;;;;;;;;;;;;;;;;;;5093277;28;1910;-44
2022/11/03 10:12:14;;;;;;;;;;;;;;;;;;5094341;28;1656;-47
2022/11/03 10:14:42;;;;;;;;;;;;;;;;;;5093800;28;1970;-47
2022/11/03 10:17:14;;;;;;;;;;;;;;;;;;5094419;28;2187;-46
2022/11/03 10:19:42;;;;;;;;;;;;;;;;;;5094462;28;1725;-47
2022/11/03 10:22:09;;;;;;;;;;;;;;;;;;5096019;28;1868;-47
2022/11/03 10:24:37;;;;;;;;;;;;;;;;;;5114682;28;1921;-47
2022/11/03 10:27:18;;;;;;;;;;;;;;;;;;5096895;28;1984;-47
2022/11/03 10:30:01;;;;;;;;;;;;;;;;;;5094268;28;1975;-48
2022/11/03 10:32:29;;;;;;;;;;;;;;;;;;5094070;28;1691;-44
2022/11/03 10:34:56;;;;;;;;;;;;;;;;;;5094056;28;1863;-45
2022/11/03 10:37:25;;;;;;;;;;;;;;;;;;5094170;28;1900;-44
2022/11/03 10:39:53;;;;;;;;;;;;;;;;;;5093975;28;2261;-48
2022/11/03 10:42:30;;;;;;;;;;;;;;;;;;5094040;28;2036;-46
2022/11/03 10:45:17;;;;;;;;;;;;;;;;;;5093842;28;1958;-47
2022/11/03 10:47:58;;;;;;;;;;;;;;;;;;5093839;28;1604;-45
2022/11/03 10:50:26;;;;;;;;;;;;;;;;;;5092698;28;1976;-48
2022/11/03 10:52:54;;;;;;;;;;;;;;;;;;5093887;28;1839;-46
2022/11/03 10:55:23;;;;;;;;;;;;;;;;;;5093787;28;2032;-46
2022/11/03 10:57:52;;;;;;;;;;;;;;;;;;5093569;28;1824;-49
2022/11/03 11:00:19;;;;;;;;;;;;;;;;;;5093585;28;2124;-47
2022/11/03 11:02:47;;;;;;;;;;;;;;;;;;5093152;28;1694;-45
2022/11/03 11:05:17;;;;;;;;;;;;;;;;;;5093665;28;1815;-48
2022/11/03 11:07:44;;;;;;;;;;;;;;;;;;5093692;28;2052;-47
2022/11/03 11:10:15;;;;;;;;;;;;;;;;;;5093498;28;1907;-45
2022/11/03 11:13:21;;;;;;;;;;;;;;;;;;5093658;28;1642;-48
2022/11/03 11:15:55;;;;;;;;;;;;;;;;;;5070548;28;2211;-49
2022/11/03 11:18:29;;;;;;;;;;;;;;;;;;5070498;28;1918;-44
2022/11/03 11:20:58;;;;;;;;;;;;;;;;;;5083772;28;1424;-48
2022/11/03 11:23:28;;;;;;;;;;;;;;;;;;5093129;28;1990;-44
2022/11/03 11:26:04;;;;;;;;;;;;;;;;;;5093170;28;1631;-47
2022/11/03 11:28:31;;;;;;;;;;;;;;;;;;5093089;28;2004;-47
2022/11/03 11:30:58;;;;;;;;;;;;;;;;;;5092840;28;1923;-45
2022/11/03 11:33:27;;;;;;;;;;;;;;;;;;5093141;28;1809;-45
2022/11/03 11:35:54;;;;;;;;;;;;;;;;;;5092860;28;2090;-46
2022/11/03 11:38:44;;;;;;;;;;;;;;;;;;5092755;28;1662;-45
2022/11/03 11:41:13;;;;;;;;;;;;;;;;;;5093154;28;2064;-48
2022/11/03 11:43:39;;;;;;;;;;;;;;;;;;5093081;28;2267;-46
2022/11/03 11:46:21;;;;;;;;;;;;;;;;;;5092577;28;1770;-43
2022/11/03 11:48:50;;;;;;;;;;;;;;;;;;5092524;28;1381;-44
2022/11/03 11:51:17;;;;;;;;;;;;;;;;;;5092508;28;1985;-45
2022/11/03 11:53:44;;;;;;;;;;;;;;;;;;5092659;28;1509;-47
2022/11/03 11:56:17;;;;;;;;;;;;;;;;;;5092737;28;1776;-44
2022/11/03 11:58:46;;;;;;;;;;;;;;;;;;5092703;28;1700;-48
2022/11/03 12:01:21;;;;;;;;;;;;;;;;;;5092196;28;1605;-47
2022/11/03 12:03:49;;;;;;;;;;;;;;;;;;5092814;28;2306;-45
2022/11/03 12:06:30;;;;;;;;;;;;;;;;;;5092439;28;1562;-46
2022/11/03 12:09:26;;;;;;;;;;;;;;;;;;5092360;28;1887;-44
2022/11/03 12:12:01;;;;;;;;;;;;;;;;;;5091512;28;1978;-46
2022/11/03 12:14:35;;;;;;;;;;;;;;;;;;5092160;28;1688;-43
2022/11/03 12:17:17;;;;;;;;;;;;;;;;;;5092107;28;1828;-46
2022/11/03 12:19:45;;;;;;;;;;;;;;;;;;5092126;28;1849;-44
2022/11/03 12:22:12;;;;;;;;;;;;;;;;;;5091724;28;2106;-47
2022/11/03 12:24:55;;;;;;;;;;;;;;;;;;5091977;28;1873;-45
2022/11/03 12:27:25;;;;;;;;;;;;;;;;;;5091940;28;2138;-46
2022/11/03 12:29:56;;;;;;;;;;;;;;;;;;5090939;28;1917;-45
2022/11/03 12:32:23;;;;;;;;;;;;;;;;;;5091799;28;2180;-49
2022/11/03 12:34:58;;;;;;;;;;;;;;;;;;5091884;28;2038;-45
2022/11/03 12:37:25;;;;;;;;;;;;;;;;;;5091592;28;1867;-45
2022/11/03 12:39:52;;;;;;;;;;;;;;;;;;5091783;28;2076;-46
2022/11/03 12:42:19;;;;;;;;;;;;;;;;;;5092033;28;2078;-44
2022/11/03 12:44:47;;;;;;;;;;;;;;;;;;5091724;28;2113;-44
2022/11/03 12:47:14;;;;;;;;;;;;;;;;;;5090254;28;2044;-45
2022/11/03 12:49:40;;;;;;;;;;;;;;;;;;5091468;28;2022;-46
2022/11/03 12:52:09;;;;;;;;;;;;;;;;;;5108242;28;2093;-44
2022/11/03 12:54:36;;;;;;;;;;;;;;;;;;5110828;28;1838;-45
2022/11/03 12:57:03;;;;;;;;;;;;;;;;;;5111768;28;1849;-47
2022/11/03 12:59:30;;;;;;;;;;;;;;;;;;5112215;28;1855;-46
2022/11/03 13:01:57;;;;;;;;;;;;;;;;;;5110124;28;2273;-45
2022/11/03 13:04:25;;;;;;;;;;;;;;;;;;5111838;28;1886;-46
2022/11/03 13:06:52;;;;;;;;;;;;;;;;;;5111971;28;1384;-47
2022/11/03 13:09:19;;;;;;;;;;;;;;;;;;5111963;28;2499;-45
2022/11/03 13:14:33;;;;;;;;;;;;;;;;;;5111647;28;1907;-47
2022/11/03 13:17:02;;;;;;;;;;;;;;;;;;5111743;28;1566;-47
2022/11/03 13:19:29;;;;;;;;;;;;;;;;;;5111632;28;1995;-45
2022/11/03 13:21:56;;;;;;;;;;;;;;;;;;5098171;28;1836;-45
2022/11/03 13:24:23;;;;;;;;;;;;;;;;;;5091339;28;1800;-44
2022/11/03 13:26:50;;;;;;;;;;;;;;;;;;5091272;28;1848;-46
2022/11/03 13:29:18;;;;;;;;;;;;;;;;;;5091148;28;1482;-46
2022/11/03 13:31:45;;;;;;;;;;;;;;;;;;5090858;28;2166;-46
2022/11/03 13:34:12;;;;;;;;;;;;;;;;;;5091126;28;1850;-44
2022/11/03 13:36:39;;;;;;;;;;;;;;;;;;5091103;28;1663;-46
2022/11/03 13:39:06;;;;;;;;;;;;;;;;;;5091030;28;2125;-47
2022/11/03 13:41:33;;;;;;;;;;;;;;;;;;5093206;28;1637;-44
2022/11/03 13:44:00;;;;;;;;;;;;;;;;;;5095144;28;1946;-45
2022/11/03 13:46:27;;;;;;;;;;;;;;;;;;5095207;28;1831;-47
2022/11/03 13:48:54;;;;;;;;;;;;;;;;;;5095338;28;1895;-46
2022/11/03 13:51:41;;;;;;;;;;;;;;;;;;5094463;28;1918;-48
2022/11/03 13:54:08;;;;;;;;;;;;;;;;;;5095070;28;1409;-46
2022/11/03 13:56:56;;;;;;;;;;;;;;;;;;5095381;28;2112;-48
2022/11/03 13:59:43;;;;;;;;;;;;;;;;;;5104978;28;1908;-46
2022/11/03 14:02:11;;;;;;;;;;;;;;;;;;5115054;28;1553;-46
2022/11/03 14:04:58;;;;;;;;;;;;;;;;;;5114872;28;1620;-46
2022/11/03 14:07:25;;;;;;;;;;;;;;;;;;5115320;27;1935;-46
2022/11/03 14:09:54;;;;;;;;;;;;;;;;;;5115101;28;1857;-45
2022/11/03 14:12:32;;;;;;;;;;;;;;;;;;5113851;28;2070;-45
2022/11/03 14:15:09;;;;;;;;;;;;;;;;;;5114728;28;1711;-46
2022/11/03 14:17:37;;;;;;;;;;;;;;;;;;5114974;28;2018;-46
2022/11/03 14:20:04;;;;;;;;;;;;;;;;;;5114928;28;1535;-47
2022/11/03 14:22:32;;;;;;;;;;;;;;;;;;5114943;28;2036;-46
2022/11/03 14:24:59;;;;;;;;;;;;;;;;;;5114692;28;1768;-46
2022/11/03 14:27:27;;;;;;;;;;;;;;;;;;5115164;27;1260;-48
2022/11/03 14:29:54;;;;;;;;;;;;;;;;;;5114649;27;1880;-46
2022/11/03 14:32:22;;;;;;;;;;;;;;;;;;5114621;28;1906;-45
2022/11/03 14:34:49;;;;;;;;;;;;;;;;;;5114432;28;2016;-45
2022/11/03 14:37:16;;;;;;;;;;;;;;;;;;5114449;28;1847;-48
2022/11/03 14:39:43;;;;;;;;;;;;;;;;;;5114275;28;1840;-46
2022/11/03 14:42:15;;;;;;;;;;;;;;;;;;5114295;28;1686;-47
2022/11/03 14:44:43;;;;;;;;;;;;;;;;;;5114218;28;1822;-45
2022/11/03 14:47:11;;;;;;;;;;;;;;;;;;5113997;28;2481;-45
2022/11/03 14:49:39;;;;;;;;;;;;;;;;;;5113278;28;1598;-49
2022/11/03 14:52:06;;;;;;;;;;;;;;;;;;5096315;28;1912;-47
2022/11/03 14:54:34;;;;;;;;;;;;;;;;;;5092556;28;1840;-45
2022/11/03 14:57:01;;;;;;;;;;;;;;;;;;5094021;28;1957;-46
2022/11/03 14:59:28;;;;;;;;;;;;;;;;;;5093952;28;1953;-44
2022/11/03 15:01:56;;;;;;;;;;;;;;;;;;5093995;28;2009;-47
2022/11/03 15:04:24;;;;;;;;;;;;;;;;;;5093535;28;1696;-44
2022/11/03 15:06:52;;;;;;;;;;;;;;;;;;5091885;28;1870;-45
2022/11/03 15:09:19;;;;;;;;;;;;;;;;;;5093654;28;1823;-47
2022/11/03 15:11:46;;;;;;;;;;;;;;;;;;5093373;28;2427;-45
2022/11/03 15:14:13;;;;;;;;;;;;;;;;;;5093422;28;2122;-46
2022/11/03 15:16:40;;;;;;;;;;;;;;;;;;5093464;28;1748;-45
2022/11/03 15:19:07;;;;;;;;;;;;;;;;;;5092928;28;1867;-46
2022/11/03 15:21:34;;;;;;;;;;;;;;;;;;5093466;28;1820;-48
2022/11/03 15:24:01;;;;;;;;;;;;;;;;;;5093169;28;2069;-43
2022/11/03 15:26:49;;;;;;;;;;;;;;;;;;5103308;28;1798;-45
2022/11/03 15:29:16;;;;;;;;;;;;;;;;;;5113430;28;1906;-45
2022/11/03 15:31:43;;;;;;;;;;;;;;;;;;5113085;28;1972;-46
2022/11/03 15:34:14;;;;;;;;;;;;;;;;;;5113598;28;1569;-49
2022/11/03 15:36:41;;;;;;;;;;;;;;;;;;5113519;28;1878;-47
2022/11/03 15:39:08;;;;;;;;;;;;;;;;;;5113387;28;2150;-47
2022/11/03 15:41:35;;;;;;;;;;;;;;;;;;5111872;28;1898;-47
2022/11/03 15:44:02;;;;;;;;;;;;;;;;;;5113366;28;2263;-46
2022/11/03 15:46:29;;;;;;;;;;;;;;;;;;5113321;28;2205;-46
2022/11/03 15:48:56;;;;;;;;;;;;;;;;;;5112971;28;1990;-45
2022/11/03 15:51:23;;;;;;;;;;;;;;;;;;5102254;28;2016;-46
2022/11/03 15:53:50;;;;;;;;;;;;;;;;;;5092729;28;2118;-47
2022/11/03 15:56:23;;;;;;;;;;;;;;;;;;5092556;28;1790;-46
2022/11/03 15:58:51;;;;;;;;;;;;;;;;;;5092390;28;2171;-46
2022/11/03 16:01:18;;;;;;;;;;;;;;;;;;5092581;28;1730;-47
2022/11/03 16:03:45;;;;;;;;;;;;;;;;;;5092569;28;1824;-46
2022/11/03 16:06:12;;;;;;;;;;;;;;;;;;5092347;28;1308;-47
2022/11/03 16:08:39;;;;;;;;;;;;;;;;;;5092724;28;2207;-45
2022/11/03 16:11:06;;;;;;;;;;;;;;;;;;5092177;28;1988;-46
2022/11/03 16:13:35;;;;;;;;;;;;;;;;;;5092551;28;1443;-46
2022/11/03 16:16:02;;;;;;;;;;;;;;;;;;5092375;28;2078;-45
2022/11/03 16:18:31;;;;;;;;;;;;;;;;;;5092068;28;1428;-45
2022/11/03 16:20:58;;;;;;;;;;;;;;;;;;5092233;28;2133;-44
2022/11/03 16:23:25;;;;;;;;;;;;;;;;;;5092085;28;1953;-44
2022/11/03 16:25:52;;;;;;;;;;;;;;;;;;5106613;28;1684;-45
2022/11/03 16:28:19;;;;;;;;;;;;;;;;;;5112143;28;1997;-44
2022/11/03 16:30:46;;;;;;;;;;;;;;;;;;5112492;28;1937;-45
2022/11/03 16:33:19;;;;;;;;;;;;;;;;;;5112315;28;1504;-46
2022/11/03 16:35:46;;;;;;;;;;;;;;;;;;5112251;28;1836;-46
2022/11/03 16:38:14;;;;;;;;;;;;;;;;;;5112203;28;1908;-46
2022/11/03 16:40:41;;;;;;;;;;;;;;;;;;5112277;28;1844;-45
2022/11/03 16:43:08;;;;;;;;;;;;;;;;;;5112099;27;1829;-46
2022/11/03 16:45:35;;;;;;;;;;;;;;;;;;5112386;28;1667;-49
2022/11/03 16:48:04;;;;;;;;;;;;;;;;;;5112076;28;2094;-47
2022/11/03 16:50:32;;;;;;;;;;;;;;;;;;5108492;28;2022;-46
2022/11/03 16:52:59;;;;;;;;;;;;;;;;;;5091311;28;1981;-45
2022/11/03 16:55:26;;;;;;;;;;;;;;;;;;5091380;28;2168;-46
2022/11/03 16:57:53;;;;;;;;;;;;;;;;;;5091524;28;1580;-46
2022/11/03 17:00:22;;;;;;;;;;;;;;;;;;5091842;28;1733;-45
2022/11/03 17:02:49;;;;;;;;;;;;;;;;;;5091429;28;2160;-44
2022/11/03 17:05:18;;;;;;;;;;;;;;;;;;5091121;28;1922;-45
2022/11/03 17:07:46;;;;;;;;;;;;;;;;;;5091473;28;2054;-48
2022/11/03 17:10:18;;;;;;;;;;;;;;;;;;5091514;28;2219;-46
2022/11/03 17:12:45;;;;;;;;;;;;;;;;;;5091104;28;1922;-46
2022/11/03 17:15:12;;;;;;;;;;;;;;;;;;5090812;28;2008;-45
2022/11/03 17:17:40;;;;;;;;;;;;;;;;;;5091340;28;1835;-45
2022/11/03 17:20:08;;;;;;;;;;;;;;;;;;5091350;28;1648;-45
2022/11/03 17:22:35;;;;;;;;;;;;;;;;;;5091268;28;2012;-45
2022/11/03 17:25:03;;;;;;;;;;;;;;;;;;5089688;28;1892;-46
2022/11/03 17:27:30;;;;;;;;;;;;;;;;;;5091179;28;2223;-46
2022/11/03 17:30:02;;;;;;;;;;;;;;;;;;5091340;28;1881;-46
2022/11/03 17:32:39;;;;;;;;;;;;;;;;;;5090934;28;1977;-44
2022/11/03 17:35:17;;;;;;;;;;;;;;;;;;5091232;28;1959;-45
2022/11/03 17:37:45;;;;;;;;;;;;;;;;;;5091032;28;2099;-49
2022/11/03 17:40:23;;;;;;;;;;;;;;;;;;5091019;28;1992;-47
2022/11/03 17:42:51;;;;;;;;;;;;;;;;;;5090893;28;1815;-45
2022/11/03 17:45:21;;;;;;;;;;;;;;;;;;5091048;28;1828;-44
2022/11/03 17:47:49;;;;;;;;;;;;;;;;;;5091112;28;1825;-46